Time;durP1;ratioP1;P1;durP2;ratioP2;P2;SDS_P1;SDS_P2;PMS_P1;PMS_P2;Temp;Humidity;BMP_temperature;BMP_pressure;BME280_temperature;BME280_humidity;BME280_pressure;Samples;Min_cycle;Max_cycle;Signal;HPM_P1;HPM_P2
2023/05/12 00:02:01;;;;;;;10.93;8.68;;;;;;;10.33;64.50;94845.19;4227301;28;20058;-60
2023/05/12 00:04:02;;;;;;;10.85;9.35;;;;;;;10.39;64.79;94848.97;4226549;28;20047;-59
2023/05/12 00:06:05;;;;;;;10.00;8.43;;;;;;;10.27;63.96;94842.34;4223028;28;20075;-57
2023/05/12 00:08:07;;;;;;;11.52;8.75;;;;;;;10.23;63.90;94850.50;4227398;28;20074;-58
2023/05/12 00:10:08;;;;;;;9.65;8.65;;;;;;;10.27;63.85;94852.81;4227911;27;20105;-56
2023/05/12 00:12:10;;;;;;;10.32;7.60;;;;;;;10.26;64.09;94844.16;4228119;28;20104;-58
2023/05/12 00:14:12;;;;;;;12.27;8.52;;;;;;;10.34;64.02;94849.44;4226292;28;20051;-57
2023/05/12 00:16:16;;;;;;;9.05;7.90;;;;;;;10.45;63.93;94843.13;4226678;28;20052;-57
2023/05/12 00:18:17;;;;;;;11.05;7.63;;;;;;;10.36;63.58;94849.31;4226683;28;20052;-57
2023/05/12 00:20:20;;;;;;;9.93;8.00;;;;;;;10.27;63.82;94845.78;4227534;28;20043;-58
2023/05/12 00:22:22;;;;;;;9.57;7.60;;;;;;;10.25;63.79;94839.88;4224137;28;20501;-57
2023/05/12 00:24:24;;;;;;;8.43;7.57;;;;;;;10.15;64.52;94849.63;4219825;28;20055;-57
2023/05/12 00:26:26;;;;;;;11.80;7.53;;;;;;;10.10;64.95;94847.47;4220653;28;20054;-60
2023/05/12 00:28:28;;;;;;;10.13;7.70;;;;;;;10.12;65.06;94848.13;4217448;28;20087;-59
2023/05/12 00:30:29;;;;;;;11.05;7.30;;;;;;;10.13;64.84;94847.16;4215701;28;20765;-57
2023/05/12 00:32:31;;;;;;;7.75;6.97;;;;;;;10.07;64.85;94842.53;4210464;28;20052;-56
2023/05/12 00:34:33;;;;;;;9.20;7.32;;;;;;;10.06;64.92;94851.34;4221269;28;20256;-58
2023/05/12 00:36:34;;;;;;;9.98;7.50;;;;;;;10.06;65.38;94848.72;4210889;28;20132;-59
2023/05/12 00:38:36;;;;;;;13.75;7.45;;;;;;;10.02;65.24;94850.00;4226182;28;20128;-58
2023/05/12 00:40:40;;;;;;;8.93;8.10;;;;;;;10.02;66.22;94845.63;4224462;28;20067;-59
2023/05/12 00:42:42;;;;;;;;;;;;;;;10.03;66.58;94855.09;4220721;28;20508;-59
2023/05/12 00:44:44;;;;;;;8.88;7.97;;;;;;;9.96;66.61;94848.00;4217194;28;19931;-59
2023/05/12 00:46:46;;;;;;;11.30;8.75;;;;;;;9.97;66.49;94854.88;4223620;28;20104;-56
2023/05/12 00:48:48;;;;;;;9.63;8.68;;;;;;;9.91;66.94;94858.91;4218602;28;20079;-58
2023/05/12 00:50:49;;;;;;;9.73;8.68;;;;;;;9.87;67.17;94859.38;4225032;28;20563;-57
2023/05/12 00:52:51;;;;;;;10.35;8.20;;;;;;;9.92;67.64;94859.75;4217198;28;20068;-53
2023/05/12 00:54:53;;;;;;;9.82;8.43;;;;;;;9.96;67.93;94858.47;4227143;28;20075;-57
2023/05/12 00:56:56;;;;;;;11.02;9.68;;;;;;;9.77;67.88;94857.66;4223923;28;20066;-59
2023/05/12 00:58:57;;;;;;;12.55;9.82;;;;;;;9.80;67.99;94859.97;4215073;28;20063;-59
2023/05/12 01:00:59;;;;;;;10.30;9.23;;;;;;;9.86;68.48;94862.97;4215791;28;20062;-60
2023/05/12 01:03:01;;;;;;;11.27;10.05;;;;;;;9.86;68.66;94860.38;4211513;28;20525;-60
2023/05/12 01:05:03;;;;;;;10.60;9.40;;;;;;;9.77;68.64;94865.53;4215119;28;20127;-58
2023/05/12 01:07:18;;;;;;;12.40;9.52;;;;;;;9.61;69.70;94867.97;4225867;28;20123;-58
2023/05/12 01:09:20;;;;;;;10.65;9.55;;;;;;;9.57;70.18;94871.84;4226195;28;20105;-57
2023/05/12 01:11:22;;;;;;;10.82;9.52;;;;;;;9.62;69.83;94867.00;4222219;28;20051;-59
2023/05/12 01:13:25;;;;;;;11.55;9.35;;;;;;;9.44;70.40;94877.44;4220716;28;20058;-58
2023/05/12 01:15:28;;;;;;;12.33;10.60;;;;;;;9.37;70.73;94868.56;4211097;28;20569;-58
2023/05/12 01:17:34;;;;;;;11.95;10.70;;;;;;;9.33;71.41;94872.44;4205912;28;20083;-58
2023/05/12 01:19:50;;;;;;;15.00;11.43;;;;;;;9.30;71.58;94863.09;4215403;28;20130;-58
2023/05/12 01:21:52;;;;;;;12.18;10.63;;;;;;;9.12;71.75;94868.28;4195440;28;20128;-58
2023/05/12 01:23:57;;;;;;;12.23;10.93;;;;;;;9.14;72.35;94875.97;4218440;28;20060;-57
2023/05/12 01:26:09;;;;;;;12.05;10.65;;;;;;;9.21;72.63;94872.63;4212552;28;20044;-58
2023/05/12 01:28:11;;;;;;;11.98;10.77;;;;;;;9.17;71.73;94873.09;4217834;28;20043;-58
2023/05/12 01:30:16;;;;;;;12.40;10.93;;;;;;;9.11;72.31;94877.09;4216768;28;20048;-58
2023/05/12 01:32:18;;;;;;;12.55;11.18;;;;;;;9.10;72.52;94878.06;4214861;28;20549;-60
2023/05/12 01:34:19;;;;;;;14.20;11.48;;;;;;;9.07;72.76;94867.06;4221791;28;20077;-59
2023/05/12 01:36:21;;;;;;;12.63;10.68;;;;;;;9.01;73.51;94873.69;4217293;28;20044;-59
2023/05/12 01:38:22;;;;;;;11.98;10.73;;;;;;;8.83;72.46;94865.81;4222399;28;20051;-59
2023/05/12 01:40:24;;;;;;;13.93;10.55;;;;;;;8.81;73.08;94868.56;4223038;28;20051;-58
2023/05/12 01:42:26;;;;;;;12.02;10.27;;;;;;;8.79;72.78;94873.09;4221645;28;20055;-59
2023/05/12 01:44:28;;;;;;;11.27;9.93;;;;;;;8.79;73.24;94867.06;4219700;28;20047;-58
2023/05/12 01:46:30;;;;;;;11.02;9.73;;;;;;;8.84;72.38;94867.47;4221090;28;20044;-59
2023/05/12 01:48:31;;;;;;;12.95;11.55;;;;;;;8.89;73.61;94870.47;4215210;28;20044;-59
2023/05/12 01:50:33;;;;;;;12.88;10.20;;;;;;;8.98;73.29;94858.31;4210215;28;20048;-55
2023/05/12 01:52:35;;;;;;;14.48;10.23;;;;;;;8.98;73.33;94864.38;4218942;28;20048;-56
2023/05/12 01:54:37;;;;;;;11.88;10.55;;;;;;;8.94;72.54;94867.41;4216744;28;20044;-57
2023/05/12 01:56:38;;;;;;;11.43;10.20;;;;;;;8.78;73.35;94863.63;4216953;28;20040;-58
2023/05/12 01:58:40;;;;;;;11.82;10.38;;;;;;;8.75;73.60;94866.50;4220286;28;20100;-60
2023/05/12 02:00:42;;;;;;;12.20;10.70;;;;;;;8.79;73.61;94861.84;4223691;28;20450;-61
2023/05/12 02:02:43;;;;;;;12.50;10.30;;;;;;;8.81;73.54;94857.28;4216770;28;20048;-59
2023/05/12 02:04:45;;;;;;;13.75;11.32;;;;;;;8.76;73.72;94860.34;4225354;28;20469;-59
2023/05/12 02:06:47;;;;;;;11.35;10.15;;;;;;;8.75;73.65;94865.69;4219108;28;20055;-59
2023/05/12 02:08:48;;;;;;;11.32;10.13;;;;;;;8.70;74.04;94865.31;4226013;28;20053;-58
2023/05/12 02:10:50;;;;;;;13.13;10.73;;;;;;;8.71;74.20;94859.13;4225269;28;20448;-60
2023/05/12 02:12:51;;;;;;;12.15;10.35;;;;;;;8.73;73.85;94871.09;4224987;28;20040;-59
2023/05/12 02:14:53;;;;;;;13.95;10.85;;;;;;;8.61;74.02;94849.53;4224711;28;20059;-59
2023/05/12 02:16:55;;;;;;;11.93;10.60;;;;;;;8.59;74.67;94864.53;4225882;28;20044;-61
2023/05/12 02:18:56;;;;;;;14.50;10.48;;;;;;;8.60;74.52;94865.34;4226168;28;20116;-57
2023/05/12 02:20:58;;;;;;;10.60;9.57;;;;;;;8.40;75.08;94865.41;4225930;28;20050;-59
2023/05/12 02:23:01;;;;;;;11.82;10.38;;;;;;;8.42;74.96;94861.84;4224437;28;20112;-56
2023/05/12 02:25:02;;;;;;;12.20;10.27;;;;;;;8.34;75.45;94859.91;4216183;28;20048;-59
2023/05/12 02:27:04;;;;;;;11.50;9.25;;;;;;;8.22;74.90;94872.28;4209855;28;20048;-59
2023/05/12 02:29:06;;;;;;;14.40;9.45;;;;;;;8.20;75.56;94863.78;4224702;28;20394;-60
2023/05/12 02:31:08;;;;;;;12.95;9.80;;;;;;;8.24;75.98;94857.31;4218609;28;20091;-60
2023/05/12 02:33:09;;;;;;;11.32;10.23;;;;;;;8.35;76.38;94856.34;4217608;28;20116;-60
2023/05/12 02:35:11;;;;;;;12.15;9.43;;;;;;;8.27;75.82;94861.44;4224376;28;20091;-59
2023/05/12 02:37:12;;;;;;;10.27;9.00;;;;;;;8.19;74.98;94862.13;4211822;28;20201;-59
2023/05/12 02:39:14;;;;;;;10.63;9.38;;;;;;;8.13;75.99;94857.47;4219715;28;20043;-60
2023/05/12 02:41:16;;;;;;;12.27;9.35;;;;;;;8.13;76.15;94860.91;4214478;28;20040;-60
2023/05/12 02:43:17;;;;;;;10.52;9.23;;;;;;;8.04;75.92;94859.13;4212686;28;20093;-61
2023/05/12 02:45:19;;;;;;;11.75;10.10;;;;;;;8.06;77.06;94869.44;4222532;28;20474;-60
2023/05/12 02:47:21;;;;;;;13.43;9.52;;;;;;;8.12;77.10;94867.06;4212203;28;20056;-57
2023/05/12 02:49:22;;;;;;;14.23;9.68;;;;;;;8.24;76.96;94865.16;4210449;28;20040;-56
2023/05/12 02:51:24;;;;;;;10.20;8.95;;;;;;;8.20;75.85;94864.59;4213994;28;20055;-55
2023/05/12 02:53:26;;;;;;;10.38;9.02;;;;;;;8.04;76.98;94864.34;4212710;28;20131;-55
2023/05/12 02:55:29;;;;;;;12.82;8.00;;;;;;;8.01;77.34;94862.03;4213310;28;20212;-58
2023/05/12 02:57:32;;;;;;;11.07;8.45;;;;;;;7.93;77.49;94864.50;4217042;28;20058;-59
2023/05/12 02:59:34;;;;;;;9.52;7.00;;;;;;;7.88;77.86;94870.13;4214600;28;20433;-61
2023/05/12 03:01:36;;;;;;;7.90;7.03;;;;;;;7.87;77.80;94868.50;4219232;28;20454;-60
2023/05/12 03:03:38;;;;;;;9.52;7.22;;;;;;;7.70;78.18;94875.22;4221296;28;20044;-57
2023/05/12 03:05:40;;;;;;;10.38;6.65;;;;;;;7.74;78.14;94873.16;4220912;28;20082;-56
2023/05/12 03:07:41;;;;;;;7.55;6.50;;;;;;;7.74;78.31;94876.59;4227549;28;20059;-56
2023/05/12 03:09:43;;;;;;;8.48;6.85;;;;;;;7.76;78.68;94869.44;4228755;28;20051;-57
2023/05/12 03:11:45;;;;;;;9.25;7.55;;;;;;;7.81;77.94;94861.22;4215708;28;20079;-56
2023/05/12 03:13:46;;;;;;;9.73;7.22;;;;;;;7.84;77.98;94867.94;4215723;28;20059;-58
2023/05/12 03:15:48;;;;;;;10.93;7.28;;;;;;;7.86;78.34;94866.84;4228830;28;20051;-56
2023/05/12 03:17:50;;;;;;;9.93;7.38;;;;;;;7.77;78.08;94873.72;4228044;28;20076;-58
2023/05/12 03:19:51;;;;;;;8.95;7.97;;;;;;;7.79;78.06;94871.78;4222693;28;20050;-59
2023/05/12 03:21:53;;;;;;;10.15;8.10;;;;;;;7.78;78.00;94879.75;4204227;28;20087;-58
2023/05/12 03:23:56;;;;;;;12.52;8.15;;;;;;;7.85;78.42;94885.22;4227932;28;20047;-58
2023/05/12 03:25:57;;;;;;;10.07;7.93;;;;;;;7.95;78.43;94891.28;4219985;28;20047;-58
2023/05/12 03:28:02;;;;;;;11.52;8.77;;;;;;;8.10;77.90;94887.28;4219044;28;20236;-58
2023/05/12 03:30:04;;;;;;;10.45;8.10;;;;;;;8.26;77.47;94888.47;4213130;28;20165;-57
2023/05/12 03:32:07;;;;;;;10.55;8.15;;;;;;;8.31;76.61;94888.91;4212874;28;20083;-57
2023/05/12 03:34:09;;;;;;;10.00;8.38;;;;;;;8.37;76.17;94891.78;4218513;28;20080;-57
2023/05/12 03:36:10;;;;;;;11.88;8.50;;;;;;;8.45;76.44;94895.47;4214395;28;20059;-56
2023/05/12 03:38:12;;;;;;;10.65;8.13;;;;;;;8.50;75.82;94886.28;4217650;28;20072;-58
2023/05/12 03:40:17;;;;;;;9.68;8.55;;;;;;;8.46;75.81;94887.53;4213248;28;20135;-55
2023/05/12 03:42:19;;;;;;;11.05;8.20;;;;;;;8.41;76.06;94897.56;4214887;28;20044;-60
2023/05/12 03:44:21;;;;;;;13.30;9.50;;;;;;;8.47;76.34;94891.75;4216637;28;20131;-60
2023/05/12 03:46:22;;;;;;;13.90;8.25;;;;;;;8.42;75.72;94901.81;4215700;28;20055;-57
2023/05/12 03:48:25;;;;;;;10.63;9.23;;;;;;;8.46;76.36;94907.59;4213040;28;20139;-59
2023/05/12 03:50:26;;;;;;;10.40;8.75;;;;;;;8.52;75.74;94897.41;4214195;28;20101;-59
2023/05/12 03:52:28;;;;;;;11.98;9.10;;;;;;;8.61;75.56;94900.94;4213230;28;20496;-57
2023/05/12 03:54:29;;;;;;;11.63;8.52;;;;;;;8.69;75.22;94902.84;4216950;28;20052;-61
2023/05/12 03:56:31;;;;;;;12.77;8.80;;;;;;;8.75;75.42;94904.88;4213822;28;20432;-60
2023/05/12 03:58:33;;;;;;;11.50;8.43;;;;;;;8.81;74.38;94901.69;4227043;28;20448;-59
2023/05/12 04:00:35;;;;;;;10.88;9.00;;;;;;;8.79;74.75;94901.84;4226993;28;20572;-61
2023/05/12 04:02:36;;;;;;;11.40;8.27;;;;;;;8.82;75.21;94898.94;4226705;27;20490;-62
2023/05/12 04:04:38;;;;;;;12.82;9.00;;;;;;;8.76;75.06;94903.94;4225597;28;20051;-60
2023/05/12 04:06:39;;;;;;;10.38;8.43;;;;;;;8.74;74.95;94904.06;4229085;28;20097;-58
2023/05/12 04:08:41;;;;;;;11.52;8.55;;;;;;;8.74;74.98;94908.47;4226112;28;20039;-60
2023/05/12 04:10:43;;;;;;;11.65;8.82;;;;;;;8.70;74.21;94910.53;4225577;28;20040;-60
2023/05/12 04:12:44;;;;;;;14.02;9.57;;;;;;;8.72;75.63;94910.41;4227881;28;20623;-63
2023/05/12 04:14:47;;;;;;;11.02;8.82;;;;;;;8.61;74.63;94914.00;4228260;28;20048;-61
2023/05/12 04:16:48;;;;;;;12.68;8.80;;;;;;;8.51;75.29;94916.63;4225842;28;20224;-60
2023/05/12 04:18:50;;;;;;;10.45;9.02;;;;;;;8.58;75.72;94920.34;4227151;28;20474;-58
2023/05/12 04:20:53;;;;;;;15.18;9.80;;;;;;;8.61;75.97;94917.44;4226644;28;20437;-59
2023/05/12 04:22:55;;;;;;;10.35;8.80;;;;;;;8.60;75.06;94910.59;4227664;28;20405;-56
2023/05/12 04:24:57;;;;;;;11.85;9.02;;;;;;;8.65;75.05;94914.53;4219895;28;20497;-57
2023/05/12 04:26:59;;;;;;;10.38;8.55;;;;;;;8.68;75.22;94915.06;4221351;28;20109;-59
2023/05/12 04:29:00;;;;;;;10.60;9.13;;;;;;;8.73;75.80;94919.88;4219466;28;20051;-59
2023/05/12 04:31:03;;;;;;;11.32;8.32;;;;;;;8.73;75.10;94909.41;4214480;28;20044;-60
2023/05/12 04:33:05;;;;;;;10.15;8.75;;;;;;;8.73;75.08;94915.50;4220316;28;20755;-61
2023/05/12 04:35:07;;;;;;;11.43;8.88;;;;;;;8.81;75.07;94914.75;4215951;28;20059;-60
2023/05/12 04:37:09;;;;;;;11.70;8.38;;;;;;;8.90;74.71;94913.09;4217130;28;20463;-60
2023/05/12 04:39:11;;;;;;;11.63;8.25;;;;;;;8.96;74.33;94910.72;4227674;28;20127;-61
2023/05/12 04:41:13;;;;;;;13.95;9.18;;;;;;;9.06;74.20;94913.28;4227088;28;20055;-61
2023/05/12 04:43:14;;;;;;;12.10;8.77;;;;;;;9.10;74.31;94909.44;4224621;28;20493;-59
2023/05/12 04:45:19;;;;;;;11.50;9.27;;;;;;;9.06;74.03;94910.69;4219035;28;20079;-59
2023/05/12 04:47:21;;;;;;;10.30;7.78;;;;;;;9.12;73.87;94914.50;4212099;28;20605;-59
2023/05/12 04:49:23;;;;;;;10.60;8.27;;;;;;;9.06;73.03;94918.53;4224198;28;20043;-61
2023/05/12 04:51:25;;;;;;;10.02;8.23;;;;;;;8.98;73.80;94916.63;4227325;28;20055;-58
2023/05/12 04:53:26;;;;;;;11.50;8.10;;;;;;;9.03;74.09;94918.78;4228342;28;20071;-62
2023/05/12 04:55:29;;;;;;;9.38;7.93;;;;;;;9.10;74.19;94916.44;4228385;28;20255;-60
2023/05/12 04:57:31;;;;;;;11.02;8.35;;;;;;;8.92;73.40;94911.16;4224327;28;20519;-61
2023/05/12 04:59:33;;;;;;;9.77;8.38;;;;;;;8.98;74.44;94918.41;4227675;28;20067;-61
2023/05/12 05:01:34;;;;;;;11.90;8.60;;;;;;;8.98;73.99;94915.81;4223864;28;20055;-62
2023/05/12 05:03:36;;;;;;;10.07;7.80;;;;;;;9.00;73.95;94919.91;4222318;28;20070;-61
2023/05/12 05:05:38;;;;;;;10.15;8.07;;;;;;;9.07;73.27;94912.31;4220316;28;20104;-61
2023/05/12 05:07:40;;;;;;;10.30;7.80;;;;;;;9.14;73.44;94912.56;4227727;28;20044;-62
2023/05/12 05:09:41;;;;;;;10.23;7.85;;;;;;;9.14;73.91;94915.16;4217893;28;20112;-64
2023/05/12 05:11:43;;;;;;;10.65;8.02;;;;;;;9.07;73.21;94917.53;4212615;28;20044;-61
2023/05/12 05:13:44;;;;;;;10.98;7.80;;;;;;;9.11;74.10;94931.16;4225857;28;20080;-63
2023/05/12 05:15:53;;;;;;;11.95;8.57;;;;;;;9.19;74.05;94923.41;4221335;28;20116;-62
2023/05/12 05:17:55;;;;;;;10.98;8.23;;;;;;;9.23;73.14;94917.75;4225813;28;20047;-61
2023/05/12 05:19:56;;;;;;;9.55;8.55;;;;;;;9.31;73.20;94926.66;4220683;28;20623;-63
2023/05/12 05:22:00;;;;;;;9.65;8.57;;;;;;;9.35;72.79;94926.22;4219358;28;20451;-61
2023/05/12 05:24:02;;;;;;;8.52;7.63;;;;;;;9.33;73.05;94919.50;4225405;28;20048;-60
2023/05/12 05:26:03;;;;;;;10.25;7.97;;;;;;;9.27;72.88;94917.44;4216663;28;20055;-62
2023/05/12 05:28:05;;;;;;;10.20;7.90;;;;;;;9.09;73.18;94928.69;4218217;28;20097;-62
2023/05/12 05:30:08;;;;;;;10.07;7.57;;;;;;;9.16;73.52;94926.31;4220401;28;20073;-61
2023/05/12 05:32:09;;;;;;;10.95;7.35;;;;;;;9.20;73.53;94927.66;4211345;28;20506;-62
2023/05/12 05:34:11;;;;;;;11.43;8.73;;;;;;;9.09;72.94;94933.09;4222426;28;20048;-62
2023/05/12 05:36:13;;;;;;;13.13;8.02;;;;;;;8.95;73.09;94929.97;4214708;28;20052;-61
2023/05/12 05:38:14;;;;;;;10.32;8.60;;;;;;;8.92;73.45;94935.47;4224864;28;20051;-59
2023/05/12 05:40:16;;;;;;;10.15;8.35;;;;;;;8.89;73.73;94933.16;4224530;28;20489;-62
2023/05/12 05:42:18;;;;;;;10.57;8.40;;;;;;;8.87;73.96;94940.31;4214002;28;20180;-62
2023/05/12 05:44:19;;;;;;;10.68;8.95;;;;;;;8.96;73.59;94936.03;4222292;28;20443;-61
2023/05/12 05:46:21;;;;;;;12.00;8.70;;;;;;;9.00;73.97;94930.38;4222454;28;20078;-62
2023/05/12 05:48:23;;;;;;;14.65;9.57;;;;;;;9.00;74.23;94937.38;4217073;28;20058;-62
2023/05/12 05:50:25;;;;;;;16.08;9.00;;;;;;;9.06;74.01;94931.59;4219499;28;20071;-62
2023/05/12 05:52:26;;;;;;;12.45;9.63;;;;;;;9.06;74.11;94931.59;4213360;28;20052;-61
2023/05/12 05:54:28;;;;;;;13.20;9.30;;;;;;;9.00;73.73;94932.97;4225641;28;20172;-60
2023/05/12 05:56:32;;;;;;;11.93;9.05;;;;;;;9.04;73.77;94935.31;4214281;28;20048;-61
2023/05/12 05:58:33;;;;;;;14.25;9.02;;;;;;;9.13;73.66;94937.88;4227703;28;20470;-61
2023/05/12 06:00:35;;;;;;;12.32;8.80;;;;;;;9.10;73.79;94939.94;4226547;28;20100;-61
2023/05/12 06:02:36;;;;;;;11.23;9.30;;;;;;;9.17;73.78;94928.78;4225471;28;20442;-62
2023/05/12 06:04:38;;;;;;;11.95;9.60;;;;;;;9.13;73.33;94937.88;4225292;28;20047;-62
2023/05/12 06:06:40;;;;;;;11.23;8.70;;;;;;;9.14;73.39;94939.53;4220987;28;20120;-58
2023/05/12 06:08:41;;;;;;;12.93;9.57;;;;;;;9.19;74.24;94939.09;4224163;28;20727;-59
2023/05/12 06:10:43;;;;;;;13.57;9.82;;;;;;;9.18;73.25;94942.66;4226759;28;20047;-62
2023/05/12 06:12:45;;;;;;;12.98;9.25;;;;;;;9.18;73.25;94940.06;4224647;28;20051;-62
2023/05/12 06:14:46;;;;;;;15.75;8.90;;;;;;;9.33;73.40;94943.00;4226383;28;20050;-61
2023/05/12 06:16:48;;;;;;;12.77;9.70;;;;;;;9.45;72.96;94938.44;4224245;28;20505;-62
2023/05/12 06:18:50;;;;;;;11.20;9.32;;;;;;;9.53;72.70;94949.81;4225950;28;20098;-62
2023/05/12 06:20:52;;;;;;;13.48;9.38;;;;;;;9.60;71.68;94952.66;4226650;28;20073;-62
2023/05/12 06:22:53;;;;;;;12.60;9.23;;;;;;;9.56;71.83;94953.91;4225055;28;20453;-62
2023/05/12 06:24:55;;;;;;;12.98;9.55;;;;;;;9.53;72.02;94954.19;4219890;28;20044;-61
2023/05/12 06:26:57;;;;;;;14.35;9.82;;;;;;;9.48;71.95;94956.44;4201122;28;20044;-61
2023/05/12 06:28:58;;;;;;;15.43;9.65;;;;;;;9.51;71.92;94950.94;4221175;28;20382;-60
2023/05/12 06:31:00;;;;;;;12.98;9.45;;;;;;;9.48;72.02;94953.81;4213475;28;20044;-62
2023/05/12 06:33:01;;;;;;;15.00;9.43;;;;;;;9.54;71.60;94958.47;4219276;28;20130;-60
2023/05/12 06:35:03;;;;;;;15.30;9.32;;;;;;;9.64;71.61;94954.81;4219490;28;20482;-61
2023/05/12 06:37:05;;;;;;;12.90;10.35;;;;;;;9.77;72.03;94954.47;4216247;28;20407;-59
2023/05/12 06:39:07;;;;;;;11.00;8.95;;;;;;;9.75;70.79;94961.66;4217873;28;20055;-63
2023/05/12 06:41:09;;;;;;;18.67;9.05;;;;;;;9.56;71.27;94972.22;4216783;28;20071;-61
2023/05/12 06:43:11;;;;;;;10.43;8.60;;;;;;;9.63;71.87;94968.84;4216952;28;20187;-61
2023/05/12 06:45:13;;;;;;;13.15;8.75;;;;;;;9.76;71.11;94960.66;4216953;28;20052;-62
2023/05/12 06:47:15;;;;;;;12.48;9.10;;;;;;;9.88;70.82;94963.91;4215464;28;20151;-62
2023/05/12 06:49:16;;;;;;;10.77;8.85;;;;;;;9.88;69.58;94960.47;4216697;28;20085;-63
2023/05/12 06:51:18;;;;;;;13.23;9.15;;;;;;;9.90;70.73;94963.75;4214658;28;21625;-64
2023/05/12 06:53:20;;;;;;;16.05;9.00;;;;;;;9.96;70.09;94971.00;4213098;28;20051;-62
2023/05/12 06:55:25;;;;;;;13.07;9.45;;;;;;;9.99;70.71;94968.91;4216488;28;20063;-59
2023/05/12 06:57:26;;;;;;;11.18;8.07;;;;;;;10.08;70.11;94972.44;4222138;28;20078;-61
2023/05/12 06:59:29;;;;;;;11.30;8.93;;;;;;;10.03;69.27;94964.22;4220065;28;20093;-62
2023/05/12 07:01:31;;;;;;;11.07;8.73;;;;;;;9.84;69.38;94968.59;4220237;28;20048;-62
2023/05/12 07:03:33;;;;;;;11.95;8.80;;;;;;;9.82;70.56;94967.91;4223307;28;20069;-61
2023/05/12 07:05:35;;;;;;;10.70;8.52;;;;;;;9.92;69.89;94965.25;4221994;28;20406;-59
2023/05/12 07:07:37;;;;;;;11.00;9.50;;;;;;;10.01;69.71;94960.91;4221398;28;20047;-61
2023/05/12 07:09:40;;;;;;;16.10;9.07;;;;;;;10.09;69.63;94962.78;4220274;28;20149;-62
2023/05/12 07:11:42;;;;;;;12.35;8.85;;;;;;;10.15;69.60;94964.81;4230272;28;20047;-61
2023/05/12 07:13:43;;;;;;;12.30;8.75;;;;;;;10.05;68.83;94965.72;4220178;27;20117;-61
2023/05/12 07:15:45;;;;;;;11.85;9.27;;;;;;;10.09;69.35;94968.00;4219855;28;20047;-62
2023/05/12 07:17:46;;;;;;;11.50;9.55;;;;;;;10.08;69.22;94969.81;4212685;28;21135;-62
2023/05/12 07:19:48;;;;;;;12.50;9.45;;;;;;;10.07;69.10;94972.56;4220277;28;20123;-60
2023/05/12 07:21:50;;;;;;;11.80;9.75;;;;;;;10.13;69.46;94967.59;4219488;28;20060;-63
2023/05/12 07:23:51;;;;;;;12.50;10.02;;;;;;;10.18;68.72;94973.19;4212578;28;20052;-62
2023/05/12 07:25:53;;;;;;;11.77;9.73;;;;;;;10.16;69.23;94975.13;4221638;27;20056;-62
2023/05/12 07:27:55;;;;;;;12.70;11.10;;;;;;;10.23;69.66;94972.72;4229326;28;20039;-64
2023/05/12 07:29:56;;;;;;;16.50;10.60;;;;;;;10.22;68.37;94968.47;4228805;28;20039;-62
2023/05/12 07:31:58;;;;;;;12.35;10.10;;;;;;;10.10;69.21;94973.09;4226986;28;20058;-63
2023/05/12 07:34:00;;;;;;;12.00;9.85;;;;;;;10.09;69.36;94974.09;4216523;28;20083;-63
2023/05/12 07:36:03;;;;;;;14.32;10.23;;;;;;;10.19;69.17;94974.00;4212680;28;20072;-63
2023/05/12 07:38:05;;;;;;;12.10;9.70;;;;;;;10.19;69.50;94974.81;4212518;28;20231;-62
2023/05/12 07:40:07;;;;;;;11.85;9.60;;;;;;;10.23;69.00;94978.78;4213188;28;20044;-61
2023/05/12 07:42:09;;;;;;;13.35;11.57;;;;;;;10.37;69.39;94977.47;4213536;28;20139;-61
2023/05/12 07:44:11;;;;;;;13.43;10.70;;;;;;;10.55;68.98;94979.25;4213386;28;20048;-62
2023/05/12 07:46:13;;;;;;;13.15;10.30;;;;;;;10.71;68.77;94973.31;4212675;28;20060;-63
2023/05/12 07:48:14;;;;;;;15.35;10.65;;;;;;;10.31;68.45;94977.25;4215920;28;20083;-61
2023/05/12 07:50:17;;;;;;;12.95;10.02;;;;;;;10.24;69.29;94977.84;4214235;28;20048;-63
2023/05/12 07:52:19;;;;;;;13.87;9.47;;;;;;;10.32;69.07;94977.09;4213178;28;20052;-63
2023/05/12 07:54:21;;;;;;;13.88;10.38;;;;;;;10.50;69.02;94971.84;4214539;28;20494;-60
2023/05/12 07:56:23;;;;;;;11.23;9.90;;;;;;;10.54;68.44;94967.13;4215255;27;20048;-62
2023/05/12 07:58:25;;;;;;;10.40;8.43;;;;;;;10.57;68.18;94967.66;4226662;28;20521;-61
2023/05/12 08:00:27;;;;;;;15.45;9.50;;;;;;;10.47;67.63;94966.91;4226634;28;20082;-64
2023/05/12 08:02:28;;;;;;;11.45;9.73;;;;;;;10.57;68.57;94967.66;4227673;28;20054;-63
2023/05/12 08:04:30;;;;;;;11.05;9.02;;;;;;;10.76;68.16;94964.03;4227472;28;20116;-62
2023/05/12 08:06:32;;;;;;;14.23;9.45;;;;;;;10.74;66.74;94962.53;4221112;28;20142;-61
2023/05/12 08:08:35;;;;;;;11.48;9.10;;;;;;;10.80;66.43;94961.94;4227412;28;20241;-60
2023/05/12 08:10:36;;;;;;;13.88;8.50;;;;;;;10.87;66.23;94962.94;4224969;28;20032;-59
2023/05/12 08:12:39;;;;;;;9.80;8.80;;;;;;;10.74;65.82;94963.34;4219420;28;20051;-60
2023/05/12 08:14:41;;;;;;;12.13;9.30;;;;;;;10.89;66.07;94966.22;4228384;27;20494;-61
2023/05/12 08:16:45;;;;;;;11.45;8.98;;;;;;;11.09;66.26;94960.78;4225463;28;20047;-60
2023/05/12 08:18:47;;;;;;;11.10;8.93;;;;;;;11.36;65.90;94957.16;4227805;28;20075;-63
2023/05/12 08:20:49;;;;;;;11.18;9.30;;;;;;;11.37;64.46;94959.59;4226976;28;20453;-62
2023/05/12 08:22:51;;;;;;;16.35;10.63;;;;;;;11.24;65.06;94962.66;4227535;28;20405;-63
2023/05/12 08:24:53;;;;;;;12.57;9.35;;;;;;;11.01;65.60;94965.00;4220245;28;20051;-61
2023/05/12 08:26:54;;;;;;;12.57;8.40;;;;;;;11.26;66.16;94973.00;4222067;28;20544;-63
2023/05/12 08:28:56;;;;;;;15.80;9.68;;;;;;;11.39;65.21;94970.75;4222388;28;20102;-62
2023/05/12 08:30:58;;;;;;;11.05;7.93;;;;;;;11.30;64.12;94963.84;4224489;28;20143;-61
2023/05/12 08:33:00;;;;;;;11.50;7.75;;;;;;;11.23;64.81;94965.44;4226576;28;20043;-62
2023/05/12 08:35:02;;;;;;;10.82;8.18;;;;;;;11.27;64.15;94964.97;4226953;28;20461;-61
2023/05/12 08:37:05;;;;;;;12.30;8.10;;;;;;;11.42;64.13;94967.84;4227509;28;20581;-63
2023/05/12 08:39:09;;;;;;;10.63;8.23;;;;;;;11.64;64.07;94965.63;4222422;28;20047;-61
2023/05/12 08:41:12;;;;;;;;;;;;;;;11.72;63.76;94972.69;4219643;28;20123;-62
2023/05/12 08:43:24;;;;;;;;;;;;;;;11.87;63.91;94969.28;4211754;28;19927;-61
2023/05/12 08:45:26;;;;;;;;;;;;;;;11.95;63.19;94967.69;4213344;28;19924;-62
2023/05/12 08:47:28;;;;;;;;;;;;;;;11.67;62.59;94966.09;4211689;28;20005;-61
2023/05/12 08:49:30;;;;;;;;;;;;;;;11.63;62.63;94961.34;4216889;28;20397;-62
2023/05/12 08:51:31;;;;;;;;;;;;;;;11.76;62.44;94958.25;4211817;28;19931;-64
2023/05/12 08:53:33;;;;;;;;;;;;;;;11.94;62.50;94974.75;4212415;28;19920;-62
2023/05/12 08:55:35;;;;;;;;;;;;;;;12.09;62.44;94964.44;4220147;28;19923;-63
2023/05/12 08:57:36;;;;;;;;;;;;;;;12.19;62.09;94969.53;4219511;28;19981;-63
2023/05/12 08:59:41;;;;;;;;;;;;;;;12.30;61.10;94971.84;4218864;28;19920;-61
2023/05/12 09:01:43;;;;;;;;;;;;;;;12.34;60.81;94972.34;4220030;28;20462;-62
2023/05/12 09:03:45;;;;;;;;;;;;;;;12.15;61.54;94966.41;4217676;28;19920;-63
2023/05/12 09:05:46;;;;;;;;;;;;;;;11.94;60.90;94960.78;4224537;28;20365;-61
2023/05/12 09:07:48;;;;;;;;;;;;;;;11.77;61.79;94963.34;4214690;28;20293;-61
2023/05/12 09:09:56;;;;;;;;;;;;;;;11.83;61.81;94961.88;4228100;28;19927;-62
2023/05/12 09:11:58;;;;;;;;;;;;;;;12.12;62.07;94961.50;4215017;28;19927;-63
2023/05/12 09:14:01;;;;;;;;;;;;;;;12.22;60.60;94956.91;4216394;28;19965;-62
2023/05/12 09:16:03;;;;;;;;;;;;;;;12.13;60.75;94962.31;4216468;28;19966;-61
2023/05/12 09:18:05;;;;;;;;;;;;;;;12.20;60.89;94951.00;4202353;28;19943;-63
2023/05/12 09:20:07;;;;;;;;;;;;;;;12.32;60.70;94955.94;4219809;28;19949;-62
2023/05/12 09:22:18;;;;;;;;;;;;;;;12.36;60.67;94949.38;4211358;28;19982;-60
2023/05/12 09:24:21;;;;;;;;;;;;;;;12.46;60.35;94952.66;4218855;28;20185;-62
2023/05/12 09:26:23;;;;;;;;;;;;;;;12.54;59.99;94947.41;4218543;28;19927;-63
2023/05/12 09:28:32;;;;;;;;;;;;;;;12.49;59.96;94945.25;4228812;28;19931;-61
2023/05/12 09:30:37;;;;;;;;;;;;;;;12.58;59.71;94948.69;4217400;28;19919;-62
2023/05/12 09:32:38;;;;;;;;;;;;;;;12.42;59.66;94941.63;4212710;28;19971;-61
2023/05/12 09:34:40;;;;;;;;;;;;;;;12.38;59.43;94944.75;4217420;28;20511;-63
2023/05/12 09:36:42;;;;;;;;;;;;;;;12.40;60.57;94948.06;4210554;28;19928;-63
2023/05/12 09:38:43;;;;;;;;;;;;;;;12.62;59.46;94944.75;4213459;28;19926;-62
2023/05/12 09:40:44;;;;;;;;;;;;;;;12.85;59.14;94939.63;4213896;28;19920;-63